Tholen, Netherlands
Current Conditions -  °F | °C
As of 2:25 PM on Friday 28 Nov 2014 (Local Time) from EHWO Reporting Station
Overcast Overcast  
Wind Chill: 43°   Ceiling: 8700
Heat Index: 48°   Visibility: 6mi
Dew Point: 43°   Wind: 12mph
Humidity: 82%   Direction: 90°E
Pressure: 29.68"   Gusts: NA
Location:  51.53°N, 4.22°E
Report Text: EHWO 281325Z AUTO 09010KT 9999 SCT081 BKN087 OVC100 09/06 Q1005 BLU 09010KT CAVOK
Loading
Personal Weather Stations






























Interactive Weather Map New forecast layout! Learn more

10-Day Weather Forecast

Advertisements
Track Severe Weather on mobile